sensor_id;sensor_type;location;lat;lon;timestamp;temperature;humidity
5280;DHT22;2663;53.588;10.010;2023-07-31T00:01:33;17.20;99.90
5280;DHT22;2663;53.588;10.010;2023-07-31T00:04:00;17.20;99.90
5280;DHT22;2663;53.588;10.010;2023-07-31T00:06:27;17.20;99.90
5280;DHT22;2663;53.588;10.010;2023-07-31T00:08:53;17.20;99.90
5280;DHT22;2663;53.588;10.010;2023-07-31T00:11:20;17.20;99.90
5280;DHT22;2663;53.588;10.010;2023-07-31T00:13:47;17.30;99.90
5280;DHT22;2663;53.588;10.010;2023-07-31T00:16:13;17.20;99.90
5280;DHT22;2663;53.588;10.010;2023-07-31T00:18:40;17.20;99.90
5280;DHT22;2663;53.588;10.010;2023-07-31T00:21:07;17.20;99.90
5280;DHT22;2663;53.588;10.010;2023-07-31T00:23:33;17.40;99.90
5280;DHT22;2663;53.588;10.010;2023-07-31T00:26:00;17.30;99.90
5280;DHT22;2663;53.588;10.010;2023-07-31T00:28:27;17.40;99.90
5280;DHT22;2663;53.588;10.010;2023-07-31T00:30:55;17.30;99.90
5280;DHT22;2663;53.588;10.010;2023-07-31T00:33:22;17.20;99.90
5280;DHT22;2663;53.588;10.010;2023-07-31T00:35:49;17.20;99.90
5280;DHT22;2663;53.588;10.010;2023-07-31T00:38:15;17.30;99.90
5280;DHT22;2663;53.588;10.010;2023-07-31T00:40:42;17.20;99.90
5280;DHT22;2663;53.588;10.010;2023-07-31T00:43:09;17.30;99.90
5280;DHT22;2663;53.588;10.010;2023-07-31T00:45:35;17.20;99.90
5280;DHT22;2663;53.588;10.010;2023-07-31T00:48:02;17.20;99.90
5280;DHT22;2663;53.588;10.010;2023-07-31T00:50:30;17.20;99.90
5280;DHT22;2663;53.588;10.010;2023-07-31T00:52:56;17.20;99.90
5280;DHT22;2663;53.588;10.010;2023-07-31T00:55:23;17.10;99.90
5280;DHT22;2663;53.588;10.010;2023-07-31T00:57:51;17.20;99.90
5280;DHT22;2663;53.588;10.010;2023-07-31T01:00:19;17.10;99.90
5280;DHT22;2663;53.588;10.010;2023-07-31T01:02:46;17.10;99.90
5280;DHT22;2663;53.588;10.010;2023-07-31T01:05:13;17.00;99.90
5280;DHT22;2663;53.588;10.010;2023-07-31T01:07:59;16.90;99.90
5280;DHT22;2663;53.588;10.010;2023-07-31T01:10:36;17.00;99.90
5280;DHT22;2663;53.588;10.010;2023-07-31T01:13:03;16.90;99.90
5280;DHT22;2663;53.588;10.010;2023-07-31T01:15:31;17.00;99.90
5280;DHT22;2663;53.588;10.010;2023-07-31T01:17:57;17.00;99.90
5280;DHT22;2663;53.588;10.010;2023-07-31T01:20:26;16.90;99.90
5280;DHT22;2663;53.588;10.010;2023-07-31T01:26:21;16.90;99.90
5280;DHT22;2663;53.588;10.010;2023-07-31T01:28:56;16.90;99.90
5280;DHT22;2663;53.588;10.010;2023-07-31T01:31:29;16.80;99.90
5280;DHT22;2663;53.588;10.010;2023-07-31T01:34:00;16.80;99.90
5280;DHT22;2663;53.588;10.010;2023-07-31T01:36:28;16.80;99.90
5280;DHT22;2663;53.588;10.010;2023-07-31T01:38:59;16.90;99.90
5280;DHT22;2663;53.588;10.010;2023-07-31T01:41:26;16.80;99.90
5280;DHT22;2663;53.588;10.010;2023-07-31T01:43:53;16.80;99.90
5280;DHT22;2663;53.588;10.010;2023-07-31T01:46:20;16.80;99.90
5280;DHT22;2663;53.588;10.010;2023-07-31T01:48:47;16.80;99.90
5280;DHT22;2663;53.588;10.010;2023-07-31T01:51:13;16.70;99.90
5280;DHT22;2663;53.588;10.010;2023-07-31T01:53:40;16.70;99.90
5280;DHT22;2663;53.588;10.010;2023-07-31T01:56:07;16.70;99.90
5280;DHT22;2663;53.588;10.010;2023-07-31T01:58:33;16.80;99.90
5280;DHT22;2663;53.588;10.010;2023-07-31T02:01:00;16.70;99.90
5280;DHT22;2663;53.588;10.010;2023-07-31T02:03:27;16.80;99.90
5280;DHT22;2663;53.588;10.010;2023-07-31T02:05:54;16.70;99.90
5280;DHT22;2663;53.588;10.010;2023-07-31T02:08:21;16.70;99.90
5280;DHT22;2663;53.588;10.010;2023-07-31T02:10:48;16.70;99.90
5280;DHT22;2663;53.588;10.010;2023-07-31T02:13:14;16.70;99.90
5280;DHT22;2663;53.588;10.010;2023-07-31T02:15:41;16.70;99.90
5280;DHT22;2663;53.588;10.010;2023-07-31T02:18:08;16.80;99.90
5280;DHT22;2663;53.588;10.010;2023-07-31T02:20:34;16.90;99.90
5280;DHT22;2663;53.588;10.010;2023-07-31T02:23:02;16.90;99.90
5280;DHT22;2663;53.588;10.010;2023-07-31T02:25:29;16.90;99.90
5280;DHT22;2663;53.588;10.010;2023-07-31T02:27:56;16.90;99.90
5280;DHT22;2663;53.588;10.010;2023-07-31T02:30:23;16.90;99.90
5280;DHT22;2663;53.588;10.010;2023-07-31T02:32:49;17.00;99.90
5280;DHT22;2663;53.588;10.010;2023-07-31T02:35:16;16.80;99.90
5280;DHT22;2663;53.588;10.010;2023-07-31T02:37:44;16.90;99.90
5280;DHT22;2663;53.588;10.010;2023-07-31T02:40:11;16.90;99.90
5280;DHT22;2663;53.588;10.010;2023-07-31T02:42:38;16.90;99.90
5280;DHT22;2663;53.588;10.010;2023-07-31T02:45:05;16.90;99.90
5280;DHT22;2663;53.588;10.010;2023-07-31T02:47:32;17.00;99.90
5280;DHT22;2663;53.588;10.010;2023-07-31T02:49:59;17.00;99.90
5280;DHT22;2663;53.588;10.010;2023-07-31T02:52:26;16.90;99.90
5280;DHT22;2663;53.588;10.010;2023-07-31T02:54:53;16.80;99.90
5280;DHT22;2663;53.588;10.010;2023-07-31T02:57:20;18.20;99.90
5280;DHT22;2663;53.588;10.010;2023-07-31T02:59:47;16.90;99.90
5280;DHT22;2663;53.588;10.010;2023-07-31T03:02:13;16.90;99.90
5280;DHT22;2663;53.588;10.010;2023-07-31T03:04:40;16.80;99.90
5280;DHT22;2663;53.588;10.010;2023-07-31T03:07:07;16.80;99.90
5280;DHT22;2663;53.588;10.010;2023-07-31T03:09:34;16.70;99.90
5280;DHT22;2663;53.588;10.010;2023-07-31T03:12:00;16.80;99.90
5280;DHT22;2663;53.588;10.010;2023-07-31T03:14:27;16.80;99.90
5280;DHT22;2663;53.588;10.010;2023-07-31T03:16:54;16.80;99.90
5280;DHT22;2663;53.588;10.010;2023-07-31T03:19:21;16.80;99.90
5280;DHT22;2663;53.588;10.010;2023-07-31T03:21:47;16.80;99.90
5280;DHT22;2663;53.588;10.010;2023-07-31T03:24:14;16.70;99.90
5280;DHT22;2663;53.588;10.010;2023-07-31T03:26:41;16.70;99.90
5280;DHT22;2663;53.588;10.010;2023-07-31T03:29:08;16.70;99.90
5280;DHT22;2663;53.588;10.010;2023-07-31T03:31:35;16.10;99.90
5280;DHT22;2663;53.588;10.010;2023-07-31T03:34:02;16.80;99.90
5280;DHT22;2663;53.588;10.010;2023-07-31T03:36:28;16.80;99.90
5280;DHT22;2663;53.588;10.010;2023-07-31T03:38:55;16.80;99.90
5280;DHT22;2663;53.588;10.010;2023-07-31T03:41:22;16.70;99.90
5280;DHT22;2663;53.588;10.010;2023-07-31T03:43:50;16.70;99.90
5280;DHT22;2663;53.588;10.010;2023-07-31T03:46:18;16.90;99.90
5280;DHT22;2663;53.588;10.010;2023-07-31T03:48:45;16.80;99.90
5280;DHT22;2663;53.588;10.010;2023-07-31T03:51:12;16.70;99.90
5280;DHT22;2663;53.588;10.010;2023-07-31T03:53:38;16.80;99.90
5280;DHT22;2663;53.588;10.010;2023-07-31T03:56:05;16.80;99.90
5280;DHT22;2663;53.588;10.010;2023-07-31T03:58:32;16.80;99.90
5280;DHT22;2663;53.588;10.010;2023-07-31T04:00:58;16.80;99.90
5280;DHT22;2663;53.588;10.010;2023-07-31T04:03:25;16.80;99.90
5280;DHT22;2663;53.588;10.010;2023-07-31T04:05:54;16.80;99.90
5280;DHT22;2663;53.588;10.010;2023-07-31T04:08:22;16.70;99.90
5280;DHT22;2663;53.588;10.010;2023-07-31T04:10:49;16.70;99.90
5280;DHT22;2663;53.588;10.010;2023-07-31T04:13:16;16.80;99.90
5280;DHT22;2663;53.588;10.010;2023-07-31T04:15:50;16.80;99.90
5280;DHT22;2663;53.588;10.010;2023-07-31T04:18:17;16.70;99.90
5280;DHT22;2663;53.588;10.010;2023-07-31T04:20:44;16.70;99.90
5280;DHT22;2663;53.588;10.010;2023-07-31T04:23:11;16.70;99.90
5280;DHT22;2663;53.588;10.010;2023-07-31T04:25:38;16.60;99.90
5280;DHT22;2663;53.588;10.010;2023-07-31T04:28:05;16.60;99.90
5280;DHT22;2663;53.588;10.010;2023-07-31T04:30:32;16.70;99.90
5280;DHT22;2663;53.588;10.010;2023-07-31T04:32:58;16.70;99.90
5280;DHT22;2663;53.588;10.010;2023-07-31T04:35:25;16.70;99.90
5280;DHT22;2663;53.588;10.010;2023-07-31T04:37:52;16.60;99.90
5280;DHT22;2663;53.588;10.010;2023-07-31T04:40:19;16.60;99.90
5280;DHT22;2663;53.588;10.010;2023-07-31T04:42:45;16.60;99.90
5280;DHT22;2663;53.588;10.010;2023-07-31T04:45:13;16.60;99.90
5280;DHT22;2663;53.588;10.010;2023-07-31T04:47:40;16.60;99.90
5280;DHT22;2663;53.588;10.010;2023-07-31T04:50:07;16.70;99.90
5280;DHT22;2663;53.588;10.010;2023-07-31T04:52:34;16.70;99.90
5280;DHT22;2663;53.588;10.010;2023-07-31T04:55:01;16.70;99.90
5280;DHT22;2663;53.588;10.010;2023-07-31T04:57:27;16.70;99.90
5280;DHT22;2663;53.588;10.010;2023-07-31T04:59:54;16.70;99.90
5280;DHT22;2663;53.588;10.010;2023-07-31T05:02:21;16.70;99.90
5280;DHT22;2663;53.588;10.010;2023-07-31T05:04:47;16.80;99.90
5280;DHT22;2663;53.588;10.010;2023-07-31T05:07:14;16.60;99.90
5280;DHT22;2663;53.588;10.010;2023-07-31T05:09:41;16.50;99.90
5280;DHT22;2663;53.588;10.010;2023-07-31T05:12:08;16.60;99.90
5280;DHT22;2663;53.588;10.010;2023-07-31T05:14:34;16.70;99.90
5280;DHT22;2663;53.588;10.010;2023-07-31T05:17:01;16.70;99.90
5280;DHT22;2663;53.588;10.010;2023-07-31T05:19:28;16.70;99.90
5280;DHT22;2663;53.588;10.010;2023-07-31T05:21:54;16.60;99.90
5280;DHT22;2663;53.588;10.010;2023-07-31T05:24:21;16.50;99.90
5280;DHT22;2663;53.588;10.010;2023-07-31T05:26:48;16.50;99.90
5280;DHT22;2663;53.588;10.010;2023-07-31T05:29:14;16.50;99.90
5280;DHT22;2663;53.588;10.010;2023-07-31T05:31:41;16.40;99.90
5280;DHT22;2663;53.588;10.010;2023-07-31T05:34:08;16.40;99.90
5280;DHT22;2663;53.588;10.010;2023-07-31T05:36:35;16.50;99.90
5280;DHT22;2663;53.588;10.010;2023-07-31T05:39:02;16.50;99.90
5280;DHT22;2663;53.588;10.010;2023-07-31T05:41:33;16.60;99.90
5280;DHT22;2663;53.588;10.010;2023-07-31T05:43:59;16.50;99.90
5280;DHT22;2663;53.588;10.010;2023-07-31T05:46:26;16.50;99.90
5280;DHT22;2663;53.588;10.010;2023-07-31T05:48:53;16.50;99.90
5280;DHT22;2663;53.588;10.010;2023-07-31T05:51:19;16.40;99.90
5280;DHT22;2663;53.588;10.010;2023-07-31T05:53:46;16.40;99.90
5280;DHT22;2663;53.588;10.010;2023-07-31T05:56:13;16.40;99.90
5280;DHT22;2663;53.588;10.010;2023-07-31T05:58:39;16.40;99.90
5280;DHT22;2663;53.588;10.010;2023-07-31T06:01:06;16.80;99.90
5280;DHT22;2663;53.588;10.010;2023-07-31T06:03:33;17.60;99.90
5280;DHT22;2663;53.588;10.010;2023-07-31T06:06:00;17.50;99.90
5280;DHT22;2663;53.588;10.010;2023-07-31T06:08:26;17.60;99.90
5280;DHT22;2663;53.588;10.010;2023-07-31T06:10:53;17.80;99.90
5280;DHT22;2663;53.588;10.010;2023-07-31T06:13:20;17.70;99.90
5280;DHT22;2663;53.588;10.010;2023-07-31T06:15:47;19.10;99.90
5280;DHT22;2663;53.588;10.010;2023-07-31T06:18:14;17.30;99.90
5280;DHT22;2663;53.588;10.010;2023-07-31T06:20:40;17.00;99.90
5280;DHT22;2663;53.588;10.010;2023-07-31T06:23:07;16.80;99.90
5280;DHT22;2663;53.588;10.010;2023-07-31T06:25:34;16.80;99.90
5280;DHT22;2663;53.588;10.010;2023-07-31T06:28:01;16.70;99.90
5280;DHT22;2663;53.588;10.010;2023-07-31T06:30:27;16.80;99.90
5280;DHT22;2663;53.588;10.010;2023-07-31T06:32:54;16.70;99.90
5280;DHT22;2663;53.588;10.010;2023-07-31T06:35:21;16.80;99.90
5280;DHT22;2663;53.588;10.010;2023-07-31T06:37:48;16.80;99.90
5280;DHT22;2663;53.588;10.010;2023-07-31T06:40:15;16.80;99.90
5280;DHT22;2663;53.588;10.010;2023-07-31T06:42:42;16.80;99.90
5280;DHT22;2663;53.588;10.010;2023-07-31T06:45:09;16.70;99.90
5280;DHT22;2663;53.588;10.010;2023-07-31T06:47:35;16.70;99.90
5280;DHT22;2663;53.588;10.010;2023-07-31T06:50:02;16.80;99.90
5280;DHT22;2663;53.588;10.010;2023-07-31T06:52:29;16.90;99.90
5280;DHT22;2663;53.588;10.010;2023-07-31T06:55:20;16.80;99.90
5280;DHT22;2663;53.588;10.010;2023-07-31T06:57:49;16.80;99.90
5280;DHT22;2663;53.588;10.010;2023-07-31T07:00:17;16.70;99.90
5280;DHT22;2663;53.588;10.010;2023-07-31T07:02:44;16.80;99.90
5280;DHT22;2663;53.588;10.010;2023-07-31T07:05:14;16.80;99.90
5280;DHT22;2663;53.588;10.010;2023-07-31T07:07:41;16.70;99.90
5280;DHT22;2663;53.588;10.010;2023-07-31T07:10:08;16.70;99.90
5280;DHT22;2663;53.588;10.010;2023-07-31T07:12:35;16.70;99.90
5280;DHT22;2663;53.588;10.010;2023-07-31T07:15:02;16.70;99.90
5280;DHT22;2663;53.588;10.010;2023-07-31T07:17:30;16.70;99.90
5280;DHT22;2663;53.588;10.010;2023-07-31T07:20:00;16.70;99.90
5280;DHT22;2663;53.588;10.010;2023-07-31T07:22:27;16.80;99.90
5280;DHT22;2663;53.588;10.010;2023-07-31T07:24:54;16.80;99.90
5280;DHT22;2663;53.588;10.010;2023-07-31T07:27:21;16.70;99.90
5280;DHT22;2663;53.588;10.010;2023-07-31T07:29:50;16.70;99.90
5280;DHT22;2663;53.588;10.010;2023-07-31T07:32:17;16.70;99.90
5280;DHT22;2663;53.588;10.010;2023-07-31T07:34:44;16.70;99.90
5280;DHT22;2663;53.588;10.010;2023-07-31T07:37:11;16.70;99.90
5280;DHT22;2663;53.588;10.010;2023-07-31T07:39:38;16.70;99.90
5280;DHT22;2663;53.588;10.010;2023-07-31T07:42:05;16.60;99.90
5280;DHT22;2663;53.588;10.010;2023-07-31T07:44:31;16.60;99.90
5280;DHT22;2663;53.588;10.010;2023-07-31T07:46:58;16.60;99.90
5280;DHT22;2663;53.588;10.010;2023-07-31T07:49:25;16.70;99.90
5280;DHT22;2663;53.588;10.010;2023-07-31T07:51:52;16.80;99.90
5280;DHT22;2663;53.588;10.010;2023-07-31T07:54:18;16.90;99.90
5280;DHT22;2663;53.588;10.010;2023-07-31T07:56:47;16.00;99.90
5280;DHT22;2663;53.588;10.010;2023-07-31T07:59:14;16.90;99.90
5280;DHT22;2663;53.588;10.010;2023-07-31T08:01:41;16.90;99.90
5280;DHT22;2663;53.588;10.010;2023-07-31T08:04:08;17.00;99.90
5280;DHT22;2663;53.588;10.010;2023-07-31T08:06:34;17.00;99.90
5280;DHT22;2663;53.588;10.010;2023-07-31T08:09:01;17.00;99.90
5280;DHT22;2663;53.588;10.010;2023-07-31T08:11:32;15.80;99.90
5280;DHT22;2663;53.588;10.010;2023-07-31T08:13:59;16.90;99.90
5280;DHT22;2663;53.588;10.010;2023-07-31T08:16:26;17.10;99.90
5280;DHT22;2663;53.588;10.010;2023-07-31T08:18:53;17.20;99.90
5280;DHT22;2663;53.588;10.010;2023-07-31T08:21:21;17.20;99.90
5280;DHT22;2663;53.588;10.010;2023-07-31T08:23:48;17.30;99.90
5280;DHT22;2663;53.588;10.010;2023-07-31T08:26:16;17.30;99.90
5280;DHT22;2663;53.588;10.010;2023-07-31T08:28:43;17.30;99.90
5280;DHT22;2663;53.588;10.010;2023-07-31T08:31:10;17.50;99.90
5280;DHT22;2663;53.588;10.010;2023-07-31T08:33:38;17.70;99.90
5280;DHT22;2663;53.588;10.010;2023-07-31T08:36:06;17.50;99.90
5280;DHT22;2663;53.588;10.010;2023-07-31T08:38:33;17.70;99.90
5280;DHT22;2663;53.588;10.010;2023-07-31T08:41:00;17.70;99.90
5280;DHT22;2663;53.588;10.010;2023-07-31T08:43:27;17.60;99.90
5280;DHT22;2663;53.588;10.010;2023-07-31T08:45:54;17.70;99.90
5280;DHT22;2663;53.588;10.010;2023-07-31T08:48:22;17.70;99.90
5280;DHT22;2663;53.588;10.010;2023-07-31T08:50:51;17.60;99.90
5280;DHT22;2663;53.588;10.010;2023-07-31T08:53:18;17.60;99.90
5280;DHT22;2663;53.588;10.010;2023-07-31T08:55:46;17.60;99.90
5280;DHT22;2663;53.588;10.010;2023-07-31T08:58:13;17.60;99.90
5280;DHT22;2663;53.588;10.010;2023-07-31T09:00:41;17.50;99.90
5280;DHT22;2663;53.588;10.010;2023-07-31T09:03:15;17.60;99.90
5280;DHT22;2663;53.588;10.010;2023-07-31T09:05:44;17.70;99.90
5280;DHT22;2663;53.588;10.010;2023-07-31T09:08:13;17.80;99.90
5280;DHT22;2663;53.588;10.010;2023-07-31T09:10:42;17.80;99.90
5280;DHT22;2663;53.588;10.010;2023-07-31T09:13:09;17.60;99.90
5280;DHT22;2663;53.588;10.010;2023-07-31T09:15:39;17.70;99.90
5280;DHT22;2663;53.588;10.010;2023-07-31T09:18:07;17.70;99.90
5280;DHT22;2663;53.588;10.010;2023-07-31T09:20:35;17.60;99.90
5280;DHT22;2663;53.588;10.010;2023-07-31T09:23:07;17.40;99.90
5280;DHT22;2663;53.588;10.010;2023-07-31T09:25:34;17.50;99.90
5280;DHT22;2663;53.588;10.010;2023-07-31T09:28:04;17.50;99.90
5280;DHT22;2663;53.588;10.010;2023-07-31T09:30:45;17.50;99.90
5280;DHT22;2663;53.588;10.010;2023-07-31T09:33:12;17.50;99.90
5280;DHT22;2663;53.588;10.010;2023-07-31T09:35:39;17.40;99.90
5280;DHT22;2663;53.588;10.010;2023-07-31T09:38:09;17.40;99.90
5280;DHT22;2663;53.588;10.010;2023-07-31T09:40:39;17.30;99.90
5280;DHT22;2663;53.588;10.010;2023-07-31T09:43:07;17.40;99.90
5280;DHT22;2663;53.588;10.010;2023-07-31T09:45:36;17.60;99.90
5280;DHT22;2663;53.588;10.010;2023-07-31T09:48:09;17.70;99.90
5280;DHT22;2663;53.588;10.010;2023-07-31T09:50:40;17.80;99.90
5280;DHT22;2663;53.588;10.010;2023-07-31T09:53:08;17.90;99.90
5280;DHT22;2663;53.588;10.010;2023-07-31T09:55:36;17.90;99.90
5280;DHT22;2663;53.588;10.010;2023-07-31T09:58:06;17.90;99.90
5280;DHT22;2663;53.588;10.010;2023-07-31T10:00:34;17.80;99.90
5280;DHT22;2663;53.588;10.010;2023-07-31T10:03:10;18.00;99.90
5280;DHT22;2663;53.588;10.010;2023-07-31T10:05:42;18.00;99.90
5280;DHT22;2663;53.588;10.010;2023-07-31T10:08:14;18.00;99.90
5280;DHT22;2663;53.588;10.010;2023-07-31T10:10:43;18.00;99.90
5280;DHT22;2663;53.588;10.010;2023-07-31T10:13:10;18.10;99.90
5280;DHT22;2663;53.588;10.010;2023-07-31T10:15:38;18.10;99.90
5280;DHT22;2663;53.588;10.010;2023-07-31T10:18:08;18.10;99.90
5280;DHT22;2663;53.588;10.010;2023-07-31T10:20:35;18.00;99.90
5280;DHT22;2663;53.588;10.010;2023-07-31T10:23:03;17.90;99.90
5280;DHT22;2663;53.588;10.010;2023-07-31T10:25:30;17.70;99.90
5280;DHT22;2663;53.588;10.010;2023-07-31T10:27:58;17.80;99.90
5280;DHT22;2663;53.588;10.010;2023-07-31T10:30:28;17.80;99.90
5280;DHT22;2663;53.588;10.010;2023-07-31T10:32:56;17.90;99.90
5280;DHT22;2663;53.588;10.010;2023-07-31T10:35:24;17.80;99.90
5280;DHT22;2663;53.588;10.010;2023-07-31T10:37:52;17.70;99.90
5280;DHT22;2663;53.588;10.010;2023-07-31T10:40:24;17.80;99.90
5280;DHT22;2663;53.588;10.010;2023-07-31T10:42:55;17.70;99.90
5280;DHT22;2663;53.588;10.010;2023-07-31T10:45:25;17.60;99.90
5280;DHT22;2663;53.588;10.010;2023-07-31T10:50:30;17.70;99.90
5280;DHT22;2663;53.588;10.010;2023-07-31T10:53:00;17.70;99.90
5280;DHT22;2663;53.588;10.010;2023-07-31T10:55:35;17.70;99.90
5280;DHT22;2663;53.588;10.010;2023-07-31T10:58:12;17.40;99.90
5280;DHT22;2663;53.588;10.010;2023-07-31T11:00:41;17.50;99.90
5280;DHT22;2663;53.588;10.010;2023-07-31T11:03:10;17.60;99.90
5280;DHT22;2663;53.588;10.010;2023-07-31T11:05:51;17.60;99.90
5280;DHT22;2663;53.588;10.010;2023-07-31T11:08:25;17.70;99.90
5280;DHT22;2663;53.588;10.010;2023-07-31T11:11:05;17.80;99.90
5280;DHT22;2663;53.588;10.010;2023-07-31T11:13:48;17.80;99.90
5280;DHT22;2663;53.588;10.010;2023-07-31T11:16:21;17.80;99.90
5280;DHT22;2663;53.588;10.010;2023-07-31T11:18:49;17.90;99.90
5280;DHT22;2663;53.588;10.010;2023-07-31T11:21:20;17.90;99.90
5280;DHT22;2663;53.588;10.010;2023-07-31T11:23:48;17.90;99.90
5280;DHT22;2663;53.588;10.010;2023-07-31T11:26:16;17.80;99.90
5280;DHT22;2663;53.588;10.010;2023-07-31T11:28:46;17.90;99.90
5280;DHT22;2663;53.588;10.010;2023-07-31T11:31:13;17.80;99.90
5280;DHT22;2663;53.588;10.010;2023-07-31T11:33:40;17.90;99.90
5280;DHT22;2663;53.588;10.010;2023-07-31T11:36:14;17.80;99.90
5280;DHT22;2663;53.588;10.010;2023-07-31T11:38:42;17.80;99.90
5280;DHT22;2663;53.588;10.010;2023-07-31T11:41:08;17.90;99.90
5280;DHT22;2663;53.588;10.010;2023-07-31T11:43:35;17.90;99.90
5280;DHT22;2663;53.588;10.010;2023-07-31T11:46:05;17.80;99.90
5280;DHT22;2663;53.588;10.010;2023-07-31T11:48:34;17.60;99.90
5280;DHT22;2663;53.588;10.010;2023-07-31T11:51:04;17.60;99.90
5280;DHT22;2663;53.588;10.010;2023-07-31T11:53:38;17.60;99.90
5280;DHT22;2663;53.588;10.010;2023-07-31T11:56:06;17.60;99.90
5280;DHT22;2663;53.588;10.010;2023-07-31T11:58:35;17.60;99.90
5280;DHT22;2663;53.588;10.010;2023-07-31T12:01:02;17.60;99.90
5280;DHT22;2663;53.588;10.010;2023-07-31T12:03:31;17.60;99.90
5280;DHT22;2663;53.588;10.010;2023-07-31T12:05:59;17.60;99.90
5280;DHT22;2663;53.588;10.010;2023-07-31T12:08:26;17.50;99.90
5280;DHT22;2663;53.588;10.010;2023-07-31T12:10:53;17.40;99.90
5280;DHT22;2663;53.588;10.010;2023-07-31T12:13:25;17.40;99.90
5280;DHT22;2663;53.588;10.010;2023-07-31T12:15:57;17.60;99.90
5280;DHT22;2663;53.588;10.010;2023-07-31T12:18:26;17.60;99.90
5280;DHT22;2663;53.588;10.010;2023-07-31T12:21:00;17.50;99.90
5280;DHT22;2663;53.588;10.010;2023-07-31T12:23:29;17.70;99.90
5280;DHT22;2663;53.588;10.010;2023-07-31T12:28:38;17.50;99.90
5280;DHT22;2663;53.588;10.010;2023-07-31T12:31:09;17.60;99.90
5280;DHT22;2663;53.588;10.010;2023-07-31T12:33:39;17.50;99.90
5280;DHT22;2663;53.588;10.010;2023-07-31T12:36:11;17.20;99.90
5280;DHT22;2663;53.588;10.010;2023-07-31T12:38:39;17.20;99.90
5280;DHT22;2663;53.588;10.010;2023-07-31T12:41:05;17.50;99.90
5280;DHT22;2663;53.588;10.010;2023-07-31T12:43:36;17.70;99.90
5280;DHT22;2663;53.588;10.010;2023-07-31T12:46:04;17.70;99.90
5280;DHT22;2663;53.588;10.010;2023-07-31T12:48:31;17.80;99.90
5280;DHT22;2663;53.588;10.010;2023-07-31T12:50:58;17.70;99.90
5280;DHT22;2663;53.588;10.010;2023-07-31T12:53:25;17.70;99.90
5280;DHT22;2663;53.588;10.010;2023-07-31T12:55:52;17.70;99.90
5280;DHT22;2663;53.588;10.010;2023-07-31T12:58:18;17.70;99.90
5280;DHT22;2663;53.588;10.010;2023-07-31T13:00:45;17.70;99.90
5280;DHT22;2663;53.588;10.010;2023-07-31T13:03:12;17.80;99.90
5280;DHT22;2663;53.588;10.010;2023-07-31T13:05:39;17.70;99.90
5280;DHT22;2663;53.588;10.010;2023-07-31T13:08:06;17.70;99.90
5280;DHT22;2663;53.588;10.010;2023-07-31T13:10:32;17.60;99.90
5280;DHT22;2663;53.588;10.010;2023-07-31T13:12:59;17.60;99.90
5280;DHT22;2663;53.588;10.010;2023-07-31T13:15:26;17.80;99.90
5280;DHT22;2663;53.588;10.010;2023-07-31T13:17:53;18.00;99.90
5280;DHT22;2663;53.588;10.010;2023-07-31T13:20:20;18.10;99.90
5280;DHT22;2663;53.588;10.010;2023-07-31T13:22:46;18.00;99.90
5280;DHT22;2663;53.588;10.010;2023-07-31T13:25:13;17.90;99.90
5280;DHT22;2663;53.588;10.010;2023-07-31T13:27:40;17.90;99.90
5280;DHT22;2663;53.588;10.010;2023-07-31T13:30:07;18.00;99.90
5280;DHT22;2663;53.588;10.010;2023-07-31T13:32:34;18.00;99.90
5280;DHT22;2663;53.588;10.010;2023-07-31T13:35:06;17.80;99.90
5280;DHT22;2663;53.588;10.010;2023-07-31T13:37:33;16.90;99.90
5280;DHT22;2663;53.588;10.010;2023-07-31T13:40:00;17.90;99.90
5280;DHT22;2663;53.588;10.010;2023-07-31T13:42:27;18.00;99.90
5280;DHT22;2663;53.588;10.010;2023-07-31T13:44:56;18.10;99.90
5280;DHT22;2663;53.588;10.010;2023-07-31T13:47:22;18.10;99.90
5280;DHT22;2663;53.588;10.010;2023-07-31T13:49:49;18.00;99.90
5280;DHT22;2663;53.588;10.010;2023-07-31T13:52:16;17.90;99.90
5280;DHT22;2663;53.588;10.010;2023-07-31T13:54:43;17.90;99.90
5280;DHT22;2663;53.588;10.010;2023-07-31T13:57:09;17.70;99.90
5280;DHT22;2663;53.588;10.010;2023-07-31T13:59:36;17.60;99.90
5280;DHT22;2663;53.588;10.010;2023-07-31T14:02:03;17.60;99.90
5280;DHT22;2663;53.588;10.010;2023-07-31T14:04:30;17.60;99.90
5280;DHT22;2663;53.588;10.010;2023-07-31T14:06:57;17.70;99.90
5280;DHT22;2663;53.588;10.010;2023-07-31T14:09:23;17.70;99.90
5280;DHT22;2663;53.588;10.010;2023-07-31T14:11:50;17.60;99.90
5280;DHT22;2663;53.588;10.010;2023-07-31T14:14:17;17.60;99.90
5280;DHT22;2663;53.588;10.010;2023-07-31T14:16:45;17.50;99.90
5280;DHT22;2663;53.588;10.010;2023-07-31T14:19:11;17.60;99.90
5280;DHT22;2663;53.588;10.010;2023-07-31T14:21:38;17.60;99.90
5280;DHT22;2663;53.588;10.010;2023-07-31T14:24:05;17.60;99.90
5280;DHT22;2663;53.588;10.010;2023-07-31T14:26:32;17.40;99.90
5280;DHT22;2663;53.588;10.010;2023-07-31T14:29:01;17.50;99.90
5280;DHT22;2663;53.588;10.010;2023-07-31T14:31:31;17.50;99.90
5280;DHT22;2663;53.588;10.010;2023-07-31T14:33:58;17.50;99.90
5280;DHT22;2663;53.588;10.010;2023-07-31T14:36:25;17.50;99.90
5280;DHT22;2663;53.588;10.010;2023-07-31T14:38:51;17.40;99.90
5280;DHT22;2663;53.588;10.010;2023-07-31T14:41:18;17.40;99.90
5280;DHT22;2663;53.588;10.010;2023-07-31T14:43:45;17.50;99.90
5280;DHT22;2663;53.588;10.010;2023-07-31T14:46:11;17.60;99.90
5280;DHT22;2663;53.588;10.010;2023-07-31T14:48:38;17.70;99.90
5280;DHT22;2663;53.588;10.010;2023-07-31T14:51:05;17.80;99.90
5280;DHT22;2663;53.588;10.010;2023-07-31T14:53:31;17.90;99.90
5280;DHT22;2663;53.588;10.010;2023-07-31T14:55:58;17.90;99.90
5280;DHT22;2663;53.588;10.010;2023-07-31T14:58:25;18.00;99.90
5280;DHT22;2663;53.588;10.010;2023-07-31T15:00:51;18.10;99.90
5280;DHT22;2663;53.588;10.010;2023-07-31T15:03:18;18.20;99.90
5280;DHT22;2663;53.588;10.010;2023-07-31T15:05:45;18.30;99.90
5280;DHT22;2663;53.588;10.010;2023-07-31T15:08:12;18.30;99.90
5280;DHT22;2663;53.588;10.010;2023-07-31T15:10:39;18.20;99.90
5280;DHT22;2663;53.588;10.010;2023-07-31T15:13:05;18.20;99.90
5280;DHT22;2663;53.588;10.010;2023-07-31T15:15:32;18.20;99.90
5280;DHT22;2663;53.588;10.010;2023-07-31T15:17:59;18.30;99.90
5280;DHT22;2663;53.588;10.010;2023-07-31T15:20:26;18.30;99.90
5280;DHT22;2663;53.588;10.010;2023-07-31T15:22:52;18.30;99.90
5280;DHT22;2663;53.588;10.010;2023-07-31T15:25:19;18.30;99.90
5280;DHT22;2663;53.588;10.010;2023-07-31T15:27:46;18.30;99.90
5280;DHT22;2663;53.588;10.010;2023-07-31T15:30:13;18.20;99.90
5280;DHT22;2663;53.588;10.010;2023-07-31T15:32:39;18.30;99.90
5280;DHT22;2663;53.588;10.010;2023-07-31T15:35:07;18.30;99.90
5280;DHT22;2663;53.588;10.010;2023-07-31T15:37:34;18.30;99.90
5280;DHT22;2663;53.588;10.010;2023-07-31T15:40:00;18.30;99.90
5280;DHT22;2663;53.588;10.010;2023-07-31T15:42:27;18.30;99.90
5280;DHT22;2663;53.588;10.010;2023-07-31T15:44:54;18.30;99.90
5280;DHT22;2663;53.588;10.010;2023-07-31T15:47:20;18.30;99.90
5280;DHT22;2663;53.588;10.010;2023-07-31T15:49:47;18.30;99.90
5280;DHT22;2663;53.588;10.010;2023-07-31T15:52:14;18.30;99.90
5280;DHT22;2663;53.588;10.010;2023-07-31T15:54:40;18.30;99.90
5280;DHT22;2663;53.588;10.010;2023-07-31T15:57:07;18.20;99.90